createdAt,value
2022-12-14T00:03:01.348Z,17.47
2022-12-14T00:08:09.530Z,18.63
2022-12-14T00:13:19.068Z,18.00
2022-12-14T00:18:24.416Z,16.50
2022-12-14T00:23:37.094Z,17.30
2022-12-14T00:28:44.729Z,15.70
2022-12-14T00:33:50.504Z,14.33
2022-12-14T00:38:58.189Z,12.87
2022-12-14T00:44:03.180Z,14.40
2022-12-14T00:49:08.214Z,12.67
2022-12-14T00:54:15.965Z,12.20
2022-12-14T00:59:27.009Z,11.33
2022-12-14T01:04:34.507Z,11.57
2022-12-14T01:09:42.123Z,11.27
2022-12-14T01:14:47.390Z,11.20
2022-12-14T01:19:52.251Z,11.27
2022-12-14T01:24:59.885Z,12.03
2022-12-14T01:30:04.978Z,11.43
2022-12-14T01:35:10.635Z,11.83
2022-12-14T01:40:19.377Z,12.07
2022-12-14T01:45:25.457Z,11.37
2022-12-14T01:50:36.211Z,12.90
2022-12-14T01:55:49.711Z,11.93
2022-12-14T02:00:57.875Z,12.03
2022-12-14T02:06:06.756Z,12.17
2022-12-14T02:11:14.749Z,11.77
2022-12-14T02:16:19.829Z,12.00
2022-12-14T02:21:27.958Z,14.60
2022-12-14T02:26:53.234Z,13.00
2022-12-14T02:32:13.828Z,14.13
2022-12-14T02:37:28.439Z,13.93
2022-12-14T02:42:44.902Z,13.93
2022-12-14T02:47:56.594Z,13.17
2022-12-14T02:53:09.406Z,12.10
2022-12-14T02:58:20.458Z,13.50
2022-12-14T03:03:29.491Z,13.07
2022-12-14T03:08:38.321Z,13.90
2022-12-14T03:13:49.344Z,14.37
2022-12-14T03:19:02.844Z,13.20
2022-12-14T03:24:12.959Z,13.40
2022-12-14T03:29:24.529Z,14.27
2022-12-14T03:34:36.929Z,14.17
2022-12-14T03:39:46.409Z,13.07
2022-12-14T03:45:02.286Z,13.33
2022-12-14T03:50:14.584Z,14.03
2022-12-14T03:55:29.215Z,12.83
2022-12-14T04:00:39.550Z,14.83
2022-12-14T04:05:49.780Z,15.67
2022-12-14T04:11:10.955Z,13.97
2022-12-14T04:16:33.069Z,13.93
2022-12-14T04:21:48.001Z,14.37
2022-12-14T04:26:58.029Z,13.70
2022-12-14T04:32:11.923Z,13.37
2022-12-14T04:37:26.684Z,14.90
2022-12-14T04:42:36.456Z,14.77
2022-12-14T04:47:47.207Z,14.53
2022-12-14T04:53:01.239Z,12.73
2022-12-14T04:58:14.597Z,13.30
2022-12-14T05:03:27.105Z,12.43
2022-12-14T05:09:01.727Z,12.33
2022-12-14T05:14:11.707Z,12.17
2022-12-14T05:19:20.676Z,13.50
2022-12-14T05:24:29.699Z,14.57
2022-12-14T05:29:34.703Z,13.13
2022-12-14T05:34:39.712Z,15.20
2022-12-14T05:39:47.554Z,14.73
2022-12-14T05:44:52.779Z,14.23
2022-12-14T05:49:57.692Z,12.23
2022-12-14T05:55:05.303Z,12.30
2022-12-14T06:00:12.336Z,11.87
2022-12-14T06:05:17.450Z,12.53
2022-12-14T06:10:27.885Z,11.67
2022-12-14T06:15:34.371Z,13.00
2022-12-14T06:20:39.528Z,13.47
2022-12-14T06:25:48.308Z,11.57
2022-12-14T06:30:54.724Z,11.47
2022-12-14T06:35:59.629Z,11.30
2022-12-14T06:41:11.981Z,10.97
2022-12-14T06:46:19.400Z,11.80
2022-12-14T06:51:29.214Z,12.00
2022-12-14T06:56:40.834Z,13.60
2022-12-14T07:01:50.154Z,11.83
2022-12-14T07:06:55.601Z,12.70
2022-12-14T07:12:03.290Z,14.37
2022-12-14T07:17:09.587Z,11.97
2022-12-14T07:22:15.045Z,12.53
2022-12-14T07:27:24.154Z,11.43
2022-12-14T07:32:31.478Z,12.10
2022-12-14T07:37:38.027Z,12.33
2022-12-14T07:42:47.984Z,11.63
2022-12-14T07:47:52.999Z,13.17
2022-12-14T07:52:58.019Z,11.63
2022-12-14T07:58:05.514Z,11.70
2022-12-14T08:03:10.566Z,10.87
2022-12-14T08:08:15.499Z,11.20
2022-12-14T08:13:23.016Z,13.23
2022-12-14T08:18:28.086Z,12.33
2022-12-14T08:23:33.830Z,11.23
2022-12-14T08:28:42.007Z,12.73
2022-12-14T08:33:47.975Z,13.60
2022-12-14T08:38:56.492Z,13.37
2022-12-14T08:44:05.686Z,13.40
2022-12-14T08:49:11.088Z,14.67
2022-12-14T08:54:17.529Z,13.30
2022-12-14T08:59:59.771Z,14.00
2022-12-14T09:04:50.591Z,14.57
2022-12-14T09:10:00.811Z,16.73
2022-12-14T09:15:12.044Z,14.50
2022-12-14T09:20:18.127Z,14.17
2022-12-14T09:25:27.156Z,15.87
2022-12-14T09:30:35.743Z,14.70
2022-12-14T09:35:41.159Z,13.67
2022-12-14T09:41:00.444Z,14.80
2022-12-14T09:46:19.301Z,13.87
2022-12-14T09:51:26.022Z,15.40
2022-12-14T09:56:30.949Z,15.67
2022-12-14T10:07:27.011Z,15.80
2022-12-14T10:12:47.023Z,15.13
2022-12-14T10:18:58.339Z,16.33
2022-12-14T10:24:01.538Z,16.57
2022-12-14T10:29:10.700Z,18.77
2022-12-14T10:34:25.433Z,15.13
2022-12-14T10:39:43.461Z,17.77
2022-12-14T10:50:55.795Z,15.37
2022-12-14T10:56:08.973Z,16.97
2022-12-14T11:01:17.659Z,15.47
2022-12-14T11:06:25.516Z,15.83
2022-12-14T11:11:31.017Z,15.40
2022-12-14T11:16:38.770Z,14.47
2022-12-14T11:21:50.384Z,15.10
2022-12-14T11:26:58.060Z,14.80
2022-12-14T11:32:04.313Z,15.17
2022-12-14T11:37:26.585Z,17.30
2022-12-14T11:42:36.252Z,15.33
2022-12-14T11:47:41.307Z,15.47
2022-12-14T11:52:49.130Z,15.40
2022-12-14T11:58:00.311Z,16.00
2022-12-14T12:03:10.792Z,16.20
2022-12-14T12:08:27.939Z,16.40
2022-12-14T12:13:35.616Z,16.23
2022-12-14T12:18:46.934Z,16.83
2022-12-14T12:24:00.378Z,17.80
2022-12-14T12:29:14.033Z,17.13
2022-12-14T12:34:24.902Z,16.67
2022-12-14T12:39:35.289Z,16.20
2022-12-14T12:44:49.972Z,16.77
2022-12-14T12:49:55.508Z,15.37
2022-12-14T12:55:06.134Z,18.30
2022-12-14T13:00:19.010Z,18.73
2022-12-14T13:11:28.401Z,18.03
2022-12-14T13:16:28.260Z,17.93
2022-12-14T13:21:36.109Z,18.37
2022-12-14T13:27:15.487Z,18.53
2022-12-14T13:32:38.958Z,17.63
2022-12-14T13:37:55.000Z,17.97
2022-12-14T13:43:14.351Z,18.03
2022-12-14T13:48:25.325Z,20.00
2022-12-14T13:53:33.790Z,19.73
2022-12-14T13:58:45.375Z,19.87
2022-12-14T14:03:56.669Z,20.63
2022-12-14T14:09:23.034Z,19.43
2022-12-14T14:14:55.427Z,20.57
2022-12-14T14:20:03.289Z,21.27
2022-12-14T14:25:27.348Z,21.83
2022-12-14T14:30:38.946Z,21.33
2022-12-14T14:35:43.987Z,18.90
2022-12-14T14:41:16.005Z,21.97
2022-12-14T14:46:37.509Z,22.67
2022-12-14T14:51:48.522Z,22.70
2022-12-14T14:56:54.593Z,26.63
2022-12-14T15:02:04.145Z,22.03
2022-12-14T15:07:11.808Z,22.30
2022-12-14T15:12:27.899Z,21.87
2022-12-14T15:17:35.957Z,23.20
2022-12-14T15:22:44.835Z,24.27
2022-12-14T15:27:51.282Z,25.00
2022-12-14T15:33:02.299Z,26.47
2022-12-14T15:38:09.558Z,25.53
2022-12-14T15:43:20.507Z,25.70
2022-12-14T15:48:31.406Z,24.27
2022-12-14T15:53:39.437Z,24.13
2022-12-14T15:58:49.735Z,25.17
2022-12-14T16:04:01.785Z,26.50
2022-12-14T16:09:10.815Z,24.50
2022-12-14T16:14:25.033Z,25.63
2022-12-14T16:19:58.024Z,25.17
2022-12-14T16:25:20.598Z,25.53
2022-12-14T16:30:34.102Z,23.80
2022-12-14T16:35:41.951Z,26.17
2022-12-14T16:40:57.486Z,24.80
2022-12-14T16:46:14.814Z,24.43
2022-12-14T16:52:07.011Z,26.43
2022-12-14T16:57:05.439Z,25.83
2022-12-14T17:02:30.441Z,25.67
2022-12-14T17:07:40.970Z,27.13
2022-12-14T17:12:48.040Z,24.37
2022-12-14T17:17:56.515Z,24.63
2022-12-14T17:23:05.231Z,24.40
2022-12-14T17:28:23.295Z,25.37
2022-12-14T17:33:30.415Z,26.13
2022-12-14T17:38:38.613Z,24.20
2022-12-14T17:43:49.943Z,26.47
2022-12-14T17:48:58.373Z,25.87
2022-12-14T17:54:09.113Z,24.40
2022-12-14T17:59:16.094Z,25.50
2022-12-14T18:04:21.058Z,25.10
2022-12-14T18:09:30.652Z,24.73
2022-12-14T18:14:35.633Z,28.47
2022-12-14T18:19:40.893Z,27.40
2022-12-14T18:24:52.219Z,28.83
2022-12-14T18:30:01.040Z,29.13
2022-12-14T18:35:09.732Z,28.93
2022-12-14T18:40:20.558Z,27.53
2022-12-14T18:45:28.030Z,28.53
2022-12-14T18:50:35.342Z,30.07
2022-12-14T18:55:50.734Z,29.30
2022-12-14T19:00:58.595Z,29.07
2022-12-14T19:06:43.156Z,27.43
2022-12-14T19:11:44.746Z,28.80
2022-12-14T19:17:00.564Z,32.63
2022-12-14T19:22:06.193Z,30.20
2022-12-14T19:27:30.275Z,35.63
2022-12-14T19:32:43.372Z,33.60
2022-12-14T19:37:55.806Z,32.90
2022-12-14T19:43:12.865Z,32.70
2022-12-14T19:48:20.218Z,34.00
2022-12-14T19:53:27.600Z,29.00
2022-12-14T19:58:42.194Z,33.10
2022-12-14T20:03:50.998Z,33.57
2022-12-14T20:09:06.544Z,32.37
2022-12-14T20:14:18.864Z,33.87
2022-12-14T20:19:28.451Z,34.10
2022-12-14T20:24:35.444Z,29.23
2022-12-14T20:29:45.541Z,28.23
2022-12-14T20:34:52.898Z,30.53
2022-12-14T20:39:59.238Z,32.87
2022-12-14T20:45:11.843Z,32.47
2022-12-14T20:50:20.959Z,31.73
2022-12-14T20:55:26.651Z,34.50
2022-12-14T21:00:34.883Z,33.57
2022-12-14T21:05:44.903Z,32.53
2022-12-14T21:10:50.415Z,33.70
2022-12-14T21:16:05.696Z,32.23
2022-12-14T21:21:11.627Z,32.97
2022-12-14T21:26:17.216Z,30.20
2022-12-14T21:31:25.633Z,30.83
2022-12-14T21:36:31.898Z,28.47
2022-12-14T21:41:49.292Z,28.90
2022-12-14T21:46:56.992Z,28.30
2022-12-14T21:52:05.804Z,29.97
2022-12-14T21:57:28.554Z,27.60
2022-12-14T22:02:38.734Z,28.77
2022-12-14T22:07:43.964Z,27.87
2022-12-14T22:12:48.912Z,28.87
2022-12-14T22:17:56.519Z,29.23
2022-12-14T22:23:01.430Z,27.63
2022-12-14T22:28:06.580Z,30.40
2022-12-14T22:33:14.273Z,32.20
2022-12-14T22:38:19.228Z,29.87
2022-12-14T22:43:28.838Z,27.77
2022-12-14T22:48:40.005Z,26.33
2022-12-14T22:53:49.741Z,25.87
2022-12-14T22:59:00.532Z,28.23
2022-12-14T23:04:09.305Z,28.57
2022-12-14T23:09:26.838Z,30.67
2022-12-14T23:14:44.238Z,29.43
2022-12-14T23:20:05.058Z,30.90
2022-12-14T23:25:23.211Z,29.97
2022-12-14T23:30:40.531Z,28.37
2022-12-14T23:36:00.456Z,29.07
2022-12-14T23:41:18.321Z,27.57
2022-12-14T23:46:35.709Z,28.90
2022-12-14T23:51:55.610Z,28.27
2022-12-14T23:57:13.872Z,27.97
